createdAt,value
2022-11-13T00:01:17.068Z,30.30
2022-11-13T00:04:03.444Z,32.90
2022-11-13T00:06:52.654Z,29.90
2022-11-13T00:09:42.873Z,32.00
2022-11-13T00:12:30.021Z,31.30
2022-11-13T00:15:16.893Z,28.30
2022-11-13T00:18:03.822Z,28.60
2022-11-13T00:20:50.402Z,31.70
2022-11-13T00:23:37.670Z,31.90
2022-11-13T00:26:26.548Z,28.50
2022-11-13T00:29:13.141Z,33.40
2022-11-13T00:32:00.213Z,27.80
2022-11-13T00:34:48.121Z,31.90
2022-11-13T00:37:36.532Z,30.10
2022-11-13T00:40:22.688Z,28.70
2022-11-13T00:43:09.346Z,27.10
2022-11-13T00:45:55.767Z,31.70
2022-11-13T00:48:42.633Z,29.30
2022-11-13T00:51:29.071Z,28.90
2022-11-13T00:54:15.830Z,25.70
2022-11-13T00:57:02.401Z,25.20
2022-11-13T00:59:48.773Z,27.70
2022-11-13T01:02:35.840Z,25.60
2022-11-13T01:05:22.534Z,31.90
2022-11-13T01:08:10.438Z,29.60
2022-11-13T01:10:57.462Z,27.50
2022-11-13T01:13:46.331Z,29.80
2022-11-13T01:16:32.859Z,33.70
2022-11-13T01:19:19.362Z,31.60
2022-11-13T01:22:07.526Z,32.10
2022-11-13T01:24:54.112Z,29.40
2022-11-13T01:27:40.611Z,30.20
2022-11-13T01:30:28.227Z,29.60
2022-11-13T01:33:14.746Z,31.40
2022-11-13T01:36:14.095Z,33.70
2022-11-13T01:39:00.353Z,30.70
2022-11-13T01:41:46.931Z,26.60
2022-11-13T01:44:55.236Z,34.30
2022-11-13T01:47:41.586Z,28.90
2022-11-13T01:50:28.747Z,25.80
2022-11-13T01:53:15.413Z,28.20
2022-11-13T01:56:02.243Z,26.00
2022-11-13T01:58:55.019Z,27.90
2022-11-13T02:01:41.769Z,29.80
2022-11-13T02:04:30.124Z,30.40
2022-11-13T02:07:19.788Z,31.80
2022-11-13T02:10:06.933Z,30.20
2022-11-13T02:12:53.406Z,30.50
2022-11-13T02:15:41.575Z,32.10
2022-11-13T02:18:31.265Z,26.90
2022-11-13T02:21:18.124Z,30.50
2022-11-13T02:24:48.744Z,26.30
2022-11-13T02:27:44.587Z,31.90
2022-11-13T02:30:33.331Z,26.50
2022-11-13T02:33:26.356Z,25.40
2022-11-13T02:36:16.688Z,26.20
2022-11-13T02:39:08.047Z,25.20
2022-11-13T02:41:54.293Z,22.70
2022-11-13T02:44:41.448Z,21.90
2022-11-13T02:47:28.302Z,24.60
2022-11-13T02:50:15.732Z,27.40
2022-11-13T02:53:02.849Z,25.60
2022-11-13T02:55:49.501Z,25.10
2022-11-13T02:58:35.981Z,25.40
2022-11-13T03:01:22.477Z,24.30
2022-11-13T03:04:08.705Z,22.70
2022-11-13T03:06:55.076Z,23.70
2022-11-13T03:09:42.169Z,27.70
2022-11-13T03:12:28.972Z,22.70
2022-11-13T03:15:15.276Z,20.80
2022-11-13T03:18:05.982Z,22.60
2022-11-13T03:20:54.165Z,25.80
2022-11-13T03:23:45.438Z,22.40
2022-11-13T03:26:31.912Z,24.70
2022-11-13T03:29:18.606Z,22.10
2022-11-13T03:32:05.104Z,20.60
2022-11-13T03:34:51.111Z,20.40
2022-11-13T03:37:37.701Z,25.00
2022-11-13T03:40:24.455Z,24.10
2022-11-13T03:43:11.084Z,24.50
2022-11-13T03:45:59.078Z,22.80
2022-11-13T03:48:45.924Z,23.30
2022-11-13T03:51:33.626Z,23.70
2022-11-13T03:54:20.179Z,21.30
2022-11-13T03:57:07.112Z,21.30
2022-11-13T03:59:53.618Z,22.30
2022-11-13T04:02:40.497Z,19.20
2022-11-13T04:05:27.593Z,22.40
2022-11-13T04:08:14.652Z,22.60
2022-11-13T04:11:13.018Z,21.80
2022-11-13T04:14:02.274Z,22.10
2022-11-13T04:16:50.562Z,22.30
2022-11-13T04:19:37.247Z,23.70
2022-11-13T04:22:23.944Z,24.10
2022-11-13T04:25:10.522Z,22.00
2022-11-13T04:27:56.714Z,24.10
2022-11-13T04:30:43.398Z,24.00
2022-11-13T04:33:29.558Z,25.30
2022-11-13T04:36:15.885Z,23.60
2022-11-13T04:39:02.510Z,23.30
2022-11-13T04:42:07.677Z,25.30
2022-11-13T04:44:53.954Z,26.50
2022-11-13T04:47:40.522Z,25.80
2022-11-13T04:50:27.478Z,25.50
2022-11-13T04:53:13.966Z,24.80
2022-11-13T04:56:00.264Z,23.80
2022-11-13T04:58:46.931Z,23.70
2022-11-13T05:01:35.469Z,25.00
2022-11-13T05:04:22.533Z,26.70
2022-11-13T05:07:08.726Z,26.30
2022-11-13T05:09:55.926Z,26.80
2022-11-13T05:12:42.851Z,25.20
2022-11-13T05:15:29.698Z,28.50
2022-11-13T05:18:16.369Z,27.90
2022-11-13T05:21:04.861Z,25.20
2022-11-13T05:23:51.265Z,26.90
2022-11-13T05:26:39.482Z,29.20
2022-11-13T05:29:25.990Z,24.70
2022-11-13T05:32:12.574Z,26.30
2022-11-13T05:34:59.387Z,27.70
2022-11-13T05:37:45.889Z,27.70
2022-11-13T05:40:32.578Z,26.60
2022-11-13T05:43:19.408Z,29.30
2022-11-13T05:46:16.108Z,27.20
2022-11-13T05:49:02.820Z,27.20
2022-11-13T05:51:49.708Z,31.80
2022-11-13T05:54:36.402Z,29.30
2022-11-13T05:57:23.076Z,29.30
2022-11-13T06:00:09.695Z,26.90
2022-11-13T06:02:56.251Z,28.30
2022-11-13T06:05:42.994Z,28.50
2022-11-13T06:08:30.036Z,29.60
2022-11-13T06:11:19.842Z,29.40
2022-11-13T06:14:06.299Z,32.70
2022-11-13T06:16:52.897Z,30.30
2022-11-13T06:19:39.130Z,33.60
2022-11-13T06:22:26.147Z,31.70
2022-11-13T06:25:12.738Z,32.00
2022-11-13T06:27:59.526Z,32.30
2022-11-13T06:30:46.241Z,35.60
2022-11-13T06:33:33.295Z,36.50
2022-11-13T06:36:22.644Z,35.60
2022-11-13T06:39:10.612Z,37.80
2022-11-13T06:41:57.069Z,35.70
2022-11-13T06:44:43.450Z,33.80
2022-11-13T06:47:29.945Z,33.00
2022-11-13T06:50:16.854Z,41.70
2022-11-13T06:53:03.134Z,38.10
2022-11-13T06:55:51.122Z,33.30
2022-11-13T06:58:38.598Z,40.40
2022-11-13T07:01:27.436Z,50.80
2022-11-13T07:04:14.214Z,72.80
2022-11-13T07:07:00.861Z,47.60
2022-11-13T07:09:47.428Z,51.70
2022-11-13T07:12:33.882Z,42.30
2022-11-13T07:15:20.386Z,49.00
2022-11-13T07:18:07.712Z,43.60
2022-11-13T07:20:53.883Z,54.00
2022-11-13T07:23:43.763Z,40.70
2022-11-13T07:26:30.113Z,40.90
2022-11-13T07:29:16.941Z,36.40
2022-11-13T07:32:03.346Z,33.20
2022-11-13T07:34:50.089Z,34.00
2022-11-13T07:37:36.402Z,38.10
2022-11-13T07:40:22.804Z,27.10
2022-11-13T07:43:09.338Z,34.00
2022-11-13T07:45:58.588Z,36.80
2022-11-13T07:48:45.045Z,36.40
2022-11-13T07:51:31.914Z,36.10
2022-11-13T07:54:18.729Z,39.80
2022-11-13T07:57:05.369Z,36.10
2022-11-13T07:59:51.957Z,44.10
2022-11-13T08:02:38.816Z,35.90
2022-11-13T08:05:25.512Z,36.90
2022-11-13T08:08:13.118Z,34.70
2022-11-13T08:11:02.949Z,35.20
2022-11-13T08:13:49.599Z,39.20
2022-11-13T08:16:35.732Z,33.00
2022-11-13T08:19:22.510Z,36.90
2022-11-13T08:22:08.733Z,35.40
2022-11-13T08:24:55.891Z,34.50
2022-11-13T08:27:42.048Z,33.40
2022-11-13T08:30:29.091Z,34.80
2022-11-13T08:33:15.113Z,38.00
2022-11-13T08:36:01.863Z,38.10
2022-11-13T08:38:48.665Z,36.20
2022-11-13T08:41:35.474Z,38.90
2022-11-13T08:44:22.286Z,36.40
2022-11-13T08:47:09.727Z,36.30
2022-11-13T08:49:56.724Z,34.20
2022-11-13T08:52:43.815Z,32.70
2022-11-13T08:55:30.689Z,36.70
2022-11-13T08:58:17.758Z,36.20
2022-11-13T09:01:04.681Z,40.70
2022-11-13T09:03:52.307Z,35.60
2022-11-13T09:06:38.749Z,39.60
2022-11-13T09:09:25.484Z,38.80
2022-11-13T09:12:11.938Z,38.30
2022-11-13T09:14:58.627Z,40.30
2022-11-13T09:17:44.790Z,39.70
2022-11-13T09:20:32.585Z,37.20
2022-11-13T09:23:18.904Z,44.10
2022-11-13T09:26:05.428Z,39.50
2022-11-13T09:28:51.886Z,34.60
2022-11-13T09:31:41.281Z,39.00
2022-11-13T09:34:27.843Z,41.60
2022-11-13T09:37:15.906Z,48.40
2022-11-13T09:40:02.810Z,42.70
2022-11-13T09:42:50.021Z,44.70
2022-11-13T09:45:36.771Z,44.60
2022-11-13T09:48:34.709Z,47.20
2022-11-13T09:51:33.002Z,47.30
2022-11-13T09:54:20.554Z,45.20
2022-11-13T09:57:26.082Z,48.60
2022-11-13T10:00:19.181Z,49.10
2022-11-13T10:03:39.452Z,50.70
2022-11-13T10:07:00.661Z,49.20
2022-11-13T10:10:20.949Z,53.40
2022-11-13T10:13:13.062Z,48.40
2022-11-13T10:16:14.356Z,44.10
2022-11-13T10:19:10.982Z,48.10
2022-11-13T10:22:26.591Z,43.60
2022-11-13T10:25:18.745Z,40.90
2022-11-13T10:28:49.059Z,46.70
2022-11-13T10:31:29.788Z,47.70
2022-11-13T10:34:20.325Z,43.50
2022-11-13T10:37:38.134Z,50.60
2022-11-13T10:40:29.577Z,42.90
2022-11-13T10:43:19.708Z,50.60
2022-11-13T10:46:06.366Z,42.90
2022-11-13T10:48:52.958Z,46.40
2022-11-13T10:51:39.801Z,47.10
2022-11-13T10:54:27.604Z,48.00
2022-11-13T10:57:33.198Z,48.00
2022-11-13T11:00:49.338Z,42.20
2022-11-13T11:03:35.634Z,45.10
2022-11-13T11:07:04.556Z,38.20
2022-11-13T11:09:41.236Z,50.00
2022-11-13T11:12:31.172Z,44.20
2022-11-13T11:15:25.624Z,41.70
2022-11-13T11:18:28.512Z,48.30
2022-11-13T11:21:32.697Z,49.10
2022-11-13T11:24:28.781Z,41.90
2022-11-13T11:27:23.039Z,47.50
2022-11-13T11:30:21.275Z,46.40
2022-11-13T11:33:21.973Z,47.40
2022-11-13T11:36:11.837Z,50.20
2022-11-13T11:39:12.530Z,46.00
2022-11-13T11:42:25.341Z,49.80
2022-11-13T11:45:25.533Z,48.00
2022-11-13T11:48:26.074Z,48.70
2022-11-13T11:51:45.925Z,48.40
2022-11-13T11:54:38.721Z,46.60
2022-11-13T11:57:31.235Z,48.00
2022-11-13T12:00:21.245Z,50.40
2022-11-13T12:03:49.033Z,50.50
2022-11-13T12:07:05.821Z,55.10
2022-11-13T12:09:59.278Z,48.50
2022-11-13T12:13:22.898Z,56.40
2022-11-13T12:16:25.037Z,46.40
2022-11-13T12:19:52.834Z,55.30
2022-11-13T12:22:55.424Z,51.50
2022-11-13T12:26:04.674Z,47.70
2022-11-13T12:29:17.321Z,53.40
2022-11-13T12:32:22.706Z,51.10
2022-11-13T12:35:21.469Z,53.40
2022-11-13T12:38:08.225Z,60.50
2022-11-13T12:41:22.185Z,56.00
2022-11-13T12:44:28.818Z,61.50
2022-11-13T12:47:16.926Z,59.20
2022-11-13T12:50:32.507Z,59.90
2022-11-13T12:53:31.397Z,65.10
2022-11-13T12:56:38.062Z,59.60
2022-11-13T12:59:30.912Z,66.90
2022-11-13T13:02:47.278Z,67.80
2022-11-13T13:05:41.100Z,65.10
2022-11-13T13:08:46.113Z,67.20
2022-11-13T13:11:56.764Z,64.20
2022-11-13T13:15:22.454Z,70.00
2022-11-13T13:18:18.961Z,65.10
2022-11-13T13:21:12.910Z,69.40
2022-11-13T13:24:09.089Z,70.30
2022-11-13T13:26:56.186Z,68.30
2022-11-13T13:29:42.517Z,67.90
2022-11-13T13:32:41.969Z,68.00
2022-11-13T13:35:47.119Z,82.40
2022-11-13T13:38:47.993Z,72.00
2022-11-13T13:42:06.468Z,69.40
2022-11-13T13:45:27.586Z,70.10
2022-11-13T13:48:24.044Z,70.30
2022-11-13T13:51:27.666Z,71.50
2022-11-13T13:54:19.839Z,67.90
2022-11-13T13:57:14.561Z,67.90
2022-11-13T14:00:01.665Z,57.60
2022-11-13T14:02:51.458Z,70.40
2022-11-13T14:05:38.058Z,65.70
2022-11-13T14:08:28.056Z,71.60
2022-11-13T14:11:27.110Z,58.60
2022-11-13T14:14:22.355Z,59.90
2022-11-13T14:17:11.776Z,67.20
2022-11-13T14:20:01.133Z,64.90
2022-11-13T14:22:55.360Z,57.40
2022-11-13T14:25:45.125Z,55.90
2022-11-13T14:28:34.460Z,63.50
2022-11-13T14:31:27.985Z,63.50
2022-11-13T14:34:19.039Z,66.00
2022-11-13T14:37:18.402Z,68.30
2022-11-13T14:40:27.336Z,55.80
2022-11-13T14:43:19.989Z,57.70
2022-11-13T14:46:22.675Z,62.00
2022-11-13T14:49:15.616Z,63.80
2022-11-13T14:52:02.482Z,60.00
2022-11-13T14:55:13.784Z,55.80
2022-11-13T14:57:55.896Z,57.60
2022-11-13T15:00:42.603Z,59.90
2022-11-13T15:03:29.393Z,63.40
2022-11-13T15:06:24.852Z,62.50
2022-11-13T15:09:17.515Z,63.20
2022-11-13T15:12:04.209Z,67.20
2022-11-13T15:14:51.450Z,59.40
2022-11-13T15:17:38.513Z,60.50
2022-11-13T15:20:27.709Z,63.10
2022-11-13T15:23:16.777Z,57.60
2022-11-13T15:26:03.654Z,65.60
2022-11-13T15:28:50.705Z,63.90
2022-11-13T15:31:41.333Z,68.20
2022-11-13T15:34:28.325Z,67.80
2022-11-13T15:37:16.251Z,61.10
2022-11-13T15:40:03.740Z,65.10
2022-11-13T15:42:50.502Z,67.70
2022-11-13T15:45:41.305Z,67.60
2022-11-13T15:48:34.309Z,63.50
2022-11-13T15:51:33.349Z,66.40
2022-11-13T15:54:32.977Z,63.60
2022-11-13T15:57:30.474Z,67.70
2022-11-13T16:00:21.437Z,62.30
2022-11-13T16:03:12.617Z,66.00
2022-11-13T16:05:59.669Z,70.40
2022-11-13T16:08:47.697Z,63.60
2022-11-13T16:11:34.556Z,67.50
2022-11-13T16:14:24.745Z,67.40
2022-11-13T16:17:14.046Z,73.10
2022-11-13T16:20:00.916Z,72.90
2022-11-13T16:22:47.643Z,65.90
2022-11-13T16:25:34.473Z,69.50
2022-11-13T16:28:20.759Z,69.40
2022-11-13T16:31:07.199Z,67.50
2022-11-13T16:33:53.854Z,66.70
2022-11-13T16:36:41.083Z,71.60
2022-11-13T16:39:27.456Z,72.20
2022-11-13T16:42:15.161Z,67.70
2022-11-13T16:45:02.103Z,76.40
2022-11-13T16:47:50.850Z,64.50
2022-11-13T16:50:39.695Z,69.10
2022-11-13T16:53:26.669Z,72.30
2022-11-13T16:56:18.470Z,72.70
2022-11-13T16:59:05.100Z,61.30
2022-11-13T17:01:55.233Z,69.90
2022-11-13T17:04:42.803Z,77.90
2022-11-13T17:07:29.808Z,69.10
2022-11-13T17:10:36.109Z,69.30
2022-11-13T17:13:22.661Z,66.70
2022-11-13T17:16:12.965Z,79.70
2022-11-13T17:19:00.240Z,76.90
2022-11-13T17:21:46.709Z,81.70
2022-11-13T17:24:33.206Z,87.30
2022-11-13T17:27:19.845Z,88.20
2022-11-13T17:30:07.067Z,80.20
2022-11-13T17:32:53.420Z,87.80
2022-11-13T17:35:39.980Z,83.50
2022-11-13T17:38:27.784Z,92.30
2022-11-13T17:41:15.860Z,84.00
2022-11-13T17:44:03.103Z,84.50
2022-11-13T17:46:49.517Z,71.00
2022-11-13T17:49:36.977Z,91.70
2022-11-13T17:52:23.419Z,92.40
2022-11-13T17:55:13.235Z,90.80
2022-11-13T17:58:00.584Z,92.60
2022-11-13T18:00:47.313Z,87.90
2022-11-13T18:03:33.861Z,92.30
2022-11-13T18:06:21.287Z,86.60
2022-11-13T18:09:07.793Z,81.60
2022-11-13T18:11:55.177Z,76.70
2022-11-13T18:14:41.550Z,78.30
2022-11-13T18:17:28.358Z,75.70
2022-11-13T18:20:15.074Z,83.90
2022-11-13T18:23:01.932Z,80.80
2022-11-13T18:25:48.419Z,78.60
2022-11-13T18:28:35.048Z,83.90
2022-11-13T18:31:23.323Z,83.60
2022-11-13T18:34:17.169Z,94.00
2022-11-13T18:37:03.602Z,105.70
2022-11-13T18:39:50.300Z,100.70
2022-11-13T18:42:36.802Z,98.40
2022-11-13T18:45:23.634Z,92.20
2022-11-13T18:48:10.100Z,88.00
2022-11-13T18:51:02.478Z,88.20
2022-11-13T18:53:49.921Z,92.40
2022-11-13T18:56:36.861Z,88.10
2022-11-13T18:59:23.329Z,86.70
2022-11-13T19:02:11.928Z,102.00
2022-11-13T19:04:58.349Z,126.00
2022-11-13T19:07:44.680Z,94.50
2022-11-13T19:10:33.338Z,85.10
2022-11-13T19:13:19.986Z,92.80
2022-11-13T19:16:12.254Z,80.20
2022-11-13T19:19:28.200Z,85.90
2022-11-13T19:22:15.016Z,78.20
2022-11-13T19:25:03.596Z,76.00
2022-11-13T19:27:50.038Z,77.90
2022-11-13T19:30:36.482Z,72.60
2022-11-13T19:33:27.556Z,70.30
2022-11-13T19:36:17.446Z,70.80
2022-11-13T19:39:04.391Z,69.50
2022-11-13T19:41:51.114Z,68.70
2022-11-13T19:44:37.705Z,64.20
2022-11-13T19:47:24.340Z,71.70
2022-11-13T19:50:10.990Z,78.80
2022-11-13T19:52:58.053Z,72.20
2022-11-13T19:55:53.673Z,75.40
2022-11-13T19:58:44.018Z,78.50
2022-11-13T20:01:32.119Z,71.30
2022-11-13T20:04:19.417Z,72.10
2022-11-13T20:07:06.922Z,77.00
2022-11-13T20:09:53.446Z,70.00
2022-11-13T20:12:39.965Z,74.20
2022-11-13T20:15:26.988Z,65.20
2022-11-13T20:18:14.389Z,69.00
2022-11-13T20:21:01.266Z,51.60
2022-11-13T20:23:47.428Z,65.80
2022-11-13T20:26:33.778Z,68.30
2022-11-13T20:29:20.503Z,57.80
2022-11-13T20:32:07.165Z,59.10
2022-11-13T20:34:53.989Z,54.50
2022-11-13T20:37:40.467Z,52.00
2022-11-13T20:40:27.094Z,53.00
2022-11-13T20:43:13.458Z,51.50
2022-11-13T20:46:09.253Z,55.60
2022-11-13T20:48:56.077Z,60.30
2022-11-13T20:51:42.265Z,54.40
2022-11-13T20:54:28.830Z,58.70
2022-11-13T20:57:15.098Z,54.20
2022-11-13T21:00:02.165Z,59.30
2022-11-13T21:02:48.721Z,59.70
2022-11-13T21:05:35.614Z,57.80
2022-11-13T21:08:22.000Z,49.40
2022-11-13T21:11:13.941Z,53.00
2022-11-13T21:14:00.797Z,54.20
2022-11-13T21:16:47.406Z,59.20
2022-11-13T21:19:33.881Z,50.80
2022-11-13T21:22:20.415Z,63.50
2022-11-13T21:25:07.353Z,57.10
2022-11-13T21:27:54.745Z,59.70
2022-11-13T21:30:41.377Z,54.10
2022-11-13T21:33:27.779Z,53.50
2022-11-13T21:36:25.411Z,48.00
2022-11-13T21:39:11.827Z,51.00
2022-11-13T21:41:58.592Z,50.40
2022-11-13T21:44:44.986Z,58.80
2022-11-13T21:47:31.346Z,49.10
2022-11-13T21:50:17.797Z,55.00
2022-11-13T21:53:04.258Z,49.80
2022-11-13T21:55:51.638Z,50.60
2022-11-13T21:58:39.841Z,46.10
2022-11-13T22:01:27.321Z,46.70
2022-11-13T22:04:13.608Z,45.80
2022-11-13T22:07:00.017Z,49.80
2022-11-13T22:09:46.455Z,43.70
2022-11-13T22:12:32.942Z,49.50
2022-11-13T22:15:19.388Z,52.00
2022-11-13T22:18:06.108Z,46.40
2022-11-13T22:20:52.565Z,47.50
2022-11-13T22:23:40.249Z,48.10
2022-11-13T22:26:27.968Z,48.20
2022-11-13T22:29:14.912Z,44.70
2022-11-13T22:34:20.464Z,46.60
2022-11-13T22:37:07.241Z,53.20
2022-11-13T22:39:53.839Z,47.60
2022-11-13T22:42:40.236Z,45.60
2022-11-13T22:45:28.389Z,47.40
2022-11-13T22:48:14.816Z,42.60
2022-11-13T22:51:23.926Z,47.00
2022-11-13T22:54:12.203Z,53.40
2022-11-13T22:57:04.041Z,50.10
2022-11-13T22:59:50.668Z,48.00
2022-11-13T23:02:37.256Z,43.60
2022-11-13T23:05:23.738Z,47.40
2022-11-13T23:08:10.436Z,50.10
2022-11-13T23:10:57.718Z,51.20
2022-11-13T23:13:50.492Z,44.30
2022-11-13T23:16:37.295Z,47.10
2022-11-13T23:19:23.690Z,48.50
2022-11-13T23:22:10.281Z,45.30
2022-11-13T23:24:56.636Z,52.00
2022-11-13T23:27:43.084Z,52.20
2022-11-13T23:30:30.027Z,51.60
2022-11-13T23:33:16.414Z,55.10
2022-11-13T23:36:03.327Z,50.40
2022-11-13T23:38:50.032Z,50.40
2022-11-13T23:41:36.771Z,49.40
2022-11-13T23:44:23.222Z,51.40
2022-11-13T23:47:09.606Z,48.70
2022-11-13T23:49:56.113Z,54.90
2022-11-13T23:52:42.712Z,51.50
2022-11-13T23:55:29.217Z,52.50
2022-11-13T23:58:16.834Z,49.50
